Time;durP1;ratioP1;P1;durP2;ratioP2;P2;SDS_P1;SDS_P2;PMS_P1;PMS_P2;Temp;Humidity;BMP_temperature;BMP_pressure;BME280_temperature;BME280_humidity;BME280_pressure;Samples;Min_cycle;Max_cycle;Signal;HPM_P1;HPM_P2
2023/10/26 00:06:45;;;;;;;0.40;0.40;;;;;;;13.88;72.95;93763.06;6077373;23;20204;-90
2023/10/26 00:19:53;;;;;;;0.45;0.45;;;;;;;13.91;71.53;93726.38;5976432;24;20174;-90
2023/10/26 01:09:10;;;;;;;1.45;0.60;;;;;;;13.96;66.06;93578.97;6178766;23;20206;-89
2023/10/26 01:26:52;;;;;;;0.40;0.40;;;;;;;14.02;64.89;93521.06;6108646;23;20242;-90
2023/10/26 02:14:05;;;;;;;1.60;0.60;;;;;;;13.77;65.27;93517.25;6127440;23;20178;-90
2023/10/26 02:24:13;;;;;;;0.50;0.50;;;;;;;13.81;65.53;93526.09;5874758;24;20243;-90
2023/10/26 02:27:01;;;;;;;0.60;0.53;;;;;;;13.78;65.38;93521.41;6070210;23;20213;-90
2023/10/26 02:34:12;;;;;;;1.05;0.60;;;;;;;13.72;65.59;93529.34;5977267;24;20185;-90
2023/10/26 02:47:01;;;;;;;0.60;0.60;;;;;;;13.55;65.63;93519.13;5920952;24;20248;-90
2023/10/26 02:56:51;;;;;;;0.50;0.50;;;;;;;13.62;65.36;93503.44;6155438;23;20268;-90
2023/10/26 03:06:49;;;;;;;0.50;0.50;;;;;;;13.61;65.28;93500.06;6088920;23;20283;-90
2023/10/26 04:04:29;;;;;;;1.20;0.70;;;;;;;13.22;67.81;93600.22;5947667;23;20199;-91
2023/10/26 04:10:01;;;;;;;;;;;;;;;;;;;;;
2023/10/26 04:15:51;;;;;;;0.50;0.50;;;;;;;13.13;68.17;93591.28;6106533;23;20185;-90
2023/10/26 04:19:11;;;;;;;1.40;1.17;;;;;;;13.02;68.21;93597.38;6151863;23;20178;-90
2023/10/26 04:22:22;;;;;;;17.53;15.27;;;;;;;12.98;69.10;93624.69;6031672;23;20182;-90
2023/10/26 04:43:14;;;;;;;;;;;;;;;;;;;;;
2023/10/26 04:52:21;;;;;;;2.53;1.10;;;;;;;12.87;70.15;93634.13;5938705;24;20187;-86
2023/10/26 04:54:48;;;;;;;0.90;0.80;;;;;;;12.90;71.19;93663.81;5950167;24;20175;-87
2023/10/26 04:57:15;;;;;;;3.00;0.70;;;;;;;12.99;70.11;93639.94;6110288;23;20195;-88
2023/10/26 04:59:43;;;;;;;1.30;1.00;;;;;;;13.01;70.44;93660.38;6152903;23;20202;-88
2023/10/26 05:02:10;;;;;;;2.63;1.10;;;;;;;12.97;70.47;93657.50;6153468;23;20225;-87
2023/10/26 05:04:48;;;;;;;1.90;0.70;;;;;;;12.99;69.82;93636.59;6152418;23;20171;-88
2023/10/26 05:07:25;;;;;;;0.70;0.67;;;;;;;12.96;70.27;93652.56;6179625;23;20206;-88
2023/10/26 05:09:59;;;;;;;41.10;35.17;;;;;;;12.87;70.38;93651.41;6181297;23;20585;-89
2023/10/26 05:13:25;;;;;;;13.48;11.77;;;;;;;12.76;71.34;93679.66;6150937;23;20173;-88
2023/10/26 05:15:56;;;;;;;5.30;2.87;;;;;;;12.71;72.48;93726.06;6129804;23;20198;-88
2023/10/26 05:18:33;;;;;;;1.70;1.40;;;;;;;12.69;73.24;93742.81;6152248;23;20163;-88
2023/10/26 05:21:36;;;;;;;1.10;1.00;;;;;;;12.73;72.44;93723.25;6151026;23;20170;-88
2023/10/26 05:24:19;;;;;;;1.63;1.10;;;;;;;12.64;73.06;93740.16;6152348;23;20174;-89
2023/10/26 05:27:03;;;;;;;1.10;1.00;;;;;;;12.57;74.95;93794.50;6151770;23;20298;-88
2023/10/26 05:29:40;;;;;;;1.07;0.90;;;;;;;12.54;75.48;93797.53;6152276;23;20244;-88
2023/10/26 05:32:21;;;;;;;1.37;1.27;;;;;;;12.58;75.08;93792.72;6148738;23;20198;-87
2023/10/26 05:35:01;;;;;;;10.40;8.47;;;;;;;12.56;74.62;93769.72;6153646;23;20197;-88
2023/10/26 05:37:32;;;;;;;2.27;2.07;;;;;;;12.60;73.80;93750.16;6152288;23;20591;-87
2023/10/26 05:40:15;;;;;;;2.80;2.10;;;;;;;12.63;73.52;93748.91;6150711;23;20522;-88
2023/10/26 05:45:40;;;;;;;2.63;0.90;;;;;;;12.71;73.45;93745.94;6106637;23;20179;-89
2023/10/26 05:48:11;;;;;;;0.87;0.83;;;;;;;12.74;72.97;93740.31;6151870;23;20187;-88
2023/10/26 05:50:44;;;;;;;0.87;0.80;;;;;;;12.78;73.09;93737.03;6152342;23;20174;-88
2023/10/26 05:53:24;;;;;;;1.43;0.90;;;;;;;12.84;73.19;93747.44;6152721;23;20173;-88
2023/10/26 05:56:04;;;;;;;1.73;1.00;;;;;;;12.87;74.36;93777.97;6152409;23;20538;-88
2023/10/26 05:58:33;;;;;;;1.27;0.97;;;;;;;12.90;75.36;93803.28;6152230;23;20209;-88
2023/10/26 06:01:13;;;;;;;0.73;0.70;;;;;;;12.91;76.19;93828.13;6153004;23;20221;-87
2023/10/26 06:03:43;;;;;;;0.70;0.70;;;;;;;12.88;77.46;93855.22;6152298;23;20165;-88
2023/10/26 06:06:09;;;;;;;1.42;0.88;;;;;;;12.80;80.02;93917.56;6151232;23;20557;-88
2023/10/26 06:08:39;;;;;;;0.90;0.70;;;;;;;12.69;83.30;93985.53;6151868;23;20187;-88
2023/10/26 06:11:09;;;;;;;0.80;0.60;;;;;;;12.67;85.79;94028.88;6153934;23;20209;-88
2023/10/26 06:13:45;;;;;;;1.03;0.63;;;;;;;12.72;86.16;94023.78;6152678;23;20710;-88
2023/10/26 06:16:16;;;;;;;1.53;0.80;;;;;;;12.67;87.61;94052.88;6155181;23;20191;-87
2023/10/26 06:18:42;;;;;;;2.90;1.00;;;;;;;12.72;88.08;94060.72;6152843;23;20167;-88
2023/10/26 06:21:17;;;;;;;0.97;0.60;;;;;;;12.66;89.87;94092.63;6153268;23;20182;-87
2023/10/26 06:23:50;;;;;;;2.00;1.70;;;;;;;12.74;89.68;94096.66;6152855;23;20177;-87
2023/10/26 06:26:19;;;;;;;0.87;0.87;;;;;;;12.75;90.40;94116.31;6151773;23;20221;-89
2023/10/26 06:28:49;;;;;;;0.70;0.70;;;;;;;12.71;91.53;94131.44;6149987;23;20693;-87
2023/10/26 06:31:18;;;;;;;1.03;0.70;;;;;;;12.70;92.43;94142.78;6150358;23;20186;-88
2023/10/26 06:33:52;;;;;;;2.20;0.97;;;;;;;12.73;92.70;94151.88;6152438;23;20233;-87
2023/10/26 06:36:24;;;;;;;0.70;0.70;;;;;;;12.79;92.38;94149.19;6153079;23;20346;-88
2023/10/26 06:39:02;;;;;;;3.10;0.80;;;;;;;12.83;92.06;94149.53;6151957;23;20171;-88
2023/10/26 06:41:36;;;;;;;0.93;0.67;;;;;;;12.90;91.39;94131.34;6152139;23;20189;-88
2023/10/26 06:44:06;;;;;;;1.27;0.70;;;;;;;12.94;91.30;94138.41;6152454;23;20159;-87
2023/10/26 06:46:37;;;;;;;0.77;0.70;;;;;;;13.00;90.15;94119.44;6151473;23;20205;-86
2023/10/26 06:49:07;;;;;;;1.27;0.70;;;;;;;12.92;90.85;94119.75;6152816;23;20234;-87
2023/10/26 06:51:37;;;;;;;2.00;0.70;;;;;;;12.82;92.44;94140.22;6151870;23;20254;-87
2023/10/26 06:54:10;;;;;;;0.60;0.60;;;;;;;12.87;92.93;94144.72;6151843;23;20233;-87
2023/10/26 06:56:46;;;;;;;0.57;0.57;;;;;;;12.80;93.70;94158.53;6151589;23;20784;-87
2023/10/26 06:59:14;;;;;;;0.87;0.60;;;;;;;12.76;94.64;94170.31;6152095;23;20812;-88
2023/10/26 07:01:44;;;;;;;0.80;0.80;;;;;;;12.86;94.58;94174.13;6152228;23;20255;-88
2023/10/26 07:04:18;;;;;;;0.60;0.60;;;;;;;12.84;95.47;94176.94;6152097;23;20178;-88
2023/10/26 07:06:47;;;;;;;0.60;0.60;;;;;;;12.87;95.62;94171.34;6153773;23;20199;-89
2023/10/26 07:09:16;;;;;;;0.77;0.70;;;;;;;12.89;95.46;94176.28;6152942;23;20187;-87
2023/10/26 07:11:46;;;;;;;0.80;0.60;;;;;;;12.84;96.20;94176.16;6153776;23;20171;-88
2023/10/26 07:14:25;;;;;;;0.80;0.60;;;;;;;12.88;96.50;94180.66;6152414;23;20182;-88
2023/10/26 07:16:56;;;;;;;0.67;0.67;;;;;;;12.91;96.34;94181.97;6151981;23;20193;-87
2023/10/26 07:19:25;;;;;;;1.00;0.70;;;;;;;12.91;96.11;94179.41;6154213;23;20156;-87
2023/10/26 07:22:00;;;;;;;0.77;0.60;;;;;;;12.91;96.25;94169.06;6155076;23;20175;-88
2023/10/26 07:24:49;;;;;;;0.63;0.63;;;;;;;12.98;96.37;94177.50;6156342;23;20179;-88
2023/10/26 07:27:34;;;;;;;0.90;0.70;;;;;;;13.05;96.69;94198.84;6156537;23;20807;-88
2023/10/26 07:30:05;;;;;;;0.50;0.50;;;;;;;13.10;96.11;94181.63;6157384;23;20191;-89
2023/10/26 07:32:47;;;;;;;1.70;0.63;;;;;;;13.04;96.48;94182.56;6156040;23;20183;-87
2023/10/26 07:35:15;;;;;;;0.80;0.80;;;;;;;13.12;96.25;94186.59;6157313;23;20178;-85
2023/10/26 07:37:41;;;;;;;0.63;0.63;;;;;;;13.14;96.82;94189.72;6161153;23;20198;-88
2023/10/26 07:40:10;;;;;;;0.80;0.80;;;;;;;13.17;96.28;94173.03;6163487;23;20167;-87
2023/10/26 07:42:36;;;;;;;0.60;0.60;;;;;;;13.17;95.81;94173.81;6161636;23;20498;-87
2023/10/26 07:45:06;;;;;;;0.63;0.53;;;;;;;13.23;96.68;94169.53;6163178;23;20795;-86
2023/10/26 07:47:36;;;;;;;2.93;0.80;;;;;;;13.24;95.30;94153.81;6159505;23;20253;-88
2023/10/26 07:50:11;;;;;;;0.80;0.60;;;;;;;13.39;94.51;94142.97;6157885;23;20211;-87
2023/10/26 07:52:42;;;;;;;0.87;0.87;;;;;;;13.54;93.85;94145.84;6156217;23;20179;-88
2023/10/26 07:55:12;;;;;;;0.90;0.77;;;;;;;13.57;93.96;94142.81;6155775;23;20185;-88
2023/10/26 07:57:50;;;;;;;1.00;0.60;;;;;;;13.59;93.22;94140.00;6155845;23;20215;-88
2023/10/26 08:00:30;;;;;;;1.50;0.60;;;;;;;13.61;93.09;94131.00;6157107;23;20245;-88
2023/10/26 08:03:00;;;;;;;0.87;0.70;;;;;;;13.56;92.54;94125.72;6158512;23;20175;-88
2023/10/26 08:05:29;;;;;;;0.60;0.60;;;;;;;13.59;93.43;94140.00;6159724;23;20235;-88
2023/10/26 08:07:58;;;;;;;0.90;0.73;;;;;;;13.62;92.98;94137.75;6157197;23;20201;-88
2023/10/26 08:10:26;;;;;;;0.60;0.50;;;;;;;13.60;92.85;94136.41;6159173;23;20226;-87
2023/10/26 08:12:53;;;;;;;1.17;0.77;;;;;;;13.61;93.14;94138.75;6156828;23;20202;-87
2023/10/26 08:15:20;;;;;;;1.03;0.60;;;;;;;13.49;92.41;94131.03;6158427;23;20186;-88
2023/10/26 08:17:57;;;;;;;0.60;0.50;;;;;;;13.49;91.93;94112.91;6159699;23;20320;-88
2023/10/26 08:20:26;;;;;;;0.70;0.60;;;;;;;13.49;91.18;94112.13;6158405;23;20205;-88
2023/10/26 08:22:56;;;;;;;1.03;0.60;;;;;;;13.46;90.59;94108.22;6157073;23;20171;-87
2023/10/26 08:25:33;;;;;;;1.23;0.60;;;;;;;13.48;89.36;94087.28;6157206;23;20646;-87
2023/10/26 08:28:03;;;;;;;1.38;0.60;;;;;;;13.56;88.75;94083.56;6157361;23;20590;-88
2023/10/26 08:30:38;;;;;;;1.83;0.80;;;;;;;13.60;88.33;94074.34;6156514;23;20439;-88
2023/10/26 08:33:05;;;;;;;0.70;0.70;;;;;;;13.58;88.03;94069.38;6155834;23;20202;-87
2023/10/26 08:35:52;;;;;;;0.60;0.50;;;;;;;13.59;87.56;94055.44;6155412;23;20254;-87
2023/10/26 08:38:42;;;;;;;0.67;0.67;;;;;;;13.60;89.06;94082.09;6153506;23;20241;-88
2023/10/26 08:41:15;;;;;;;1.37;0.70;;;;;;;13.59;89.57;94103.78;6157040;23;20246;-87
2023/10/26 08:44:01;;;;;;;1.03;0.80;;;;;;;13.68;90.19;94121.28;6158455;23;20262;-87
2023/10/26 08:46:33;;;;;;;1.02;0.80;;;;;;;13.73;91.23;94139.47;6158520;23;20265;-87
2023/10/26 08:49:06;;;;;;;1.30;0.90;;;;;;;13.64;91.33;94140.09;6157720;23;20215;-87
2023/10/26 08:51:33;;;;;;;0.80;0.80;;;;;;;13.57;91.89;94153.16;6156796;23;20174;-87
2023/10/26 08:54:05;;;;;;;0.60;0.60;;;;;;;13.53;92.18;94143.50;6154902;23;20178;-87
2023/10/26 08:56:35;;;;;;;0.87;0.80;;;;;;;13.47;92.31;94134.84;6156499;23;20558;-88
2023/10/26 08:59:10;;;;;;;0.65;0.65;;;;;;;13.51;92.17;94135.19;6154032;23;20227;-88
2023/10/26 09:01:40;;;;;;;0.63;0.60;;;;;;;13.57;91.75;94137.63;6155958;23;20178;-87
2023/10/26 09:04:15;;;;;;;1.57;0.70;;;;;;;13.59;92.30;94143.38;6155651;23;20175;-88
2023/10/26 09:06:46;;;;;;;0.60;0.60;;;;;;;13.47;93.12;94145.97;6154882;23;20259;-87
2023/10/26 09:09:23;;;;;;;2.10;0.60;;;;;;;13.56;93.50;94155.97;6154383;23;20238;-87
2023/10/26 09:11:55;;;;;;;3.70;3.08;;;;;;;13.58;94.89;94174.63;6154374;23;20179;-88
2023/10/26 09:14:23;;;;;;;0.90;0.80;;;;;;;13.54;95.09;94179.47;6153626;23;20173;-87
2023/10/26 09:17:18;;;;;;;0.90;0.70;;;;;;;13.59;94.61;94166.66;6153971;23;20195;-87
2023/10/26 09:19:54;;;;;;;1.40;0.80;;;;;;;13.70;94.54;94172.78;6006213;23;20239;-88
2023/10/26 09:22:40;;;;;;;1.90;0.70;;;;;;;13.73;94.94;94177.50;6142827;23;20175;-87
2023/10/26 09:25:11;;;;;;;1.03;0.80;;;;;;;13.71;94.94;94182.91;6154448;23;20241;-86
2023/10/26 09:27:48;;;;;;;1.08;0.70;;;;;;;13.77;95.24;94194.91;6153254;23;20202;-87
2023/10/26 09:30:32;;;;;;;1.00;0.60;;;;;;;13.66;96.50;94197.56;6151478;23;20281;-87
2023/10/26 09:33:02;;;;;;;0.83;0.60;;;;;;;13.62;96.50;94219.72;6152107;23;20501;-87
2023/10/26 09:35:43;;;;;;;1.93;0.70;;;;;;;13.50;98.54;94240.41;6152294;23;20234;-87
2023/10/26 09:38:24;;;;;;;1.10;0.60;;;;;;;13.45;100.00;94254.03;6151626;23;20174;-87
2023/10/26 09:40:51;;;;;;;0.87;0.70;;;;;;;13.51;99.67;94254.13;6151154;23;20187;-88
2023/10/26 09:43:24;;;;;;;2.22;0.70;;;;;;;13.57;99.64;94259.19;6150782;23;20198;-87
2023/10/26 09:46:03;;;;;;;1.43;0.80;;;;;;;13.51;100.00;94257.50;6152092;23;20239;-88
2023/10/26 09:48:30;;;;;;;1.07;0.80;;;;;;;13.55;100.00;94255.25;6152167;23;20238;-88
2023/10/26 09:51:04;;;;;;;0.80;0.63;;;;;;;13.57;99.53;94242.88;6151906;23;20203;-87
2023/10/26 09:53:36;;;;;;;2.20;0.80;;;;;;;13.55;100.00;94250.84;6151796;23;20583;-88
2023/10/26 09:56:04;;;;;;;2.13;0.83;;;;;;;13.60;100.00;94237.25;6152096;23;20195;-87
2023/10/26 09:58:39;;;;;;;1.43;1.00;;;;;;;13.59;100.00;94241.63;6152028;23;20488;-87
2023/10/26 10:01:33;;;;;;;1.00;0.70;;;;;;;13.62;100.00;94241.19;6150978;23;20170;-87
2023/10/26 10:04:07;;;;;;;1.07;0.70;;;;;;;13.66;100.00;94246.69;6151435;23;20257;-87
2023/10/26 10:06:58;;;;;;;1.30;0.73;;;;;;;13.71;100.00;94247.56;6151253;23;20199;-87
2023/10/26 10:09:28;;;;;;;0.70;0.70;;;;;;;13.75;100.00;94248.69;6151073;23;20198;-87
2023/10/26 10:12:32;;;;;;;3.88;0.80;;;;;;;13.77;100.00;94244.06;6151321;23;20221;-86
2023/10/26 10:15:07;;;;;;;0.90;0.90;;;;;;;13.70;100.00;94258.13;6151040;23;20185;-87
2023/10/26 10:18:16;;;;;;;1.43;0.80;;;;;;;13.76;100.00;94272.75;6151798;23;20692;-86
2023/10/26 10:20:43;;;;;;;4.63;1.85;;;;;;;13.90;100.00;94287.00;6151002;23;20225;-86
2023/10/26 10:23:29;;;;;;;0.90;0.88;;;;;;;14.12;100.00;94275.03;6150386;23;20210;-86
2023/10/26 10:26:02;;;;;;;2.88;1.10;;;;;;;14.29;100.00;94271.69;6150432;23;20195;-86
2023/10/26 10:28:51;;;;;;;3.03;1.52;;;;;;;14.36;98.38;94231.72;6150492;23;20175;-86
2023/10/26 10:31:41;;;;;;;3.50;1.80;;;;;;;14.38;98.71;94229.69;6149966;23;20179;-86
2023/10/26 10:34:09;;;;;;;3.90;1.33;;;;;;;14.48;98.35;94231.66;6151313;23;20152;-87
2023/10/26 10:37:11;;;;;;;1.25;1.10;;;;;;;14.52;97.14;94210.25;6151025;23;20199;-87
2023/10/26 10:39:38;;;;;;;3.15;1.20;;;;;;;14.60;96.70;94208.31;6150810;23;20554;-86
2023/10/26 10:42:11;;;;;;;3.38;1.35;;;;;;;14.67;96.06;94194.16;6150061;23;20177;-86
2023/10/26 10:44:38;;;;;;;1.42;1.10;;;;;;;14.75;95.44;94180.03;6150443;23;20170;-86
2023/10/26 10:47:06;;;;;;;2.15;0.95;;;;;;;14.78;94.29;94157.03;6149562;23;20705;-87
2023/10/26 10:49:36;;;;;;;2.28;1.10;;;;;;;14.73;95.58;94162.16;6149258;23;20267;-87
2023/10/26 10:52:17;;;;;;;2.83;1.05;;;;;;;14.78;95.47;94164.81;6150386;23;20175;-88
2023/10/26 10:54:50;;;;;;;1.25;1.10;;;;;;;14.90;94.86;94156.16;6151178;23;20159;-86
2023/10/26 10:57:20;;;;;;;2.33;1.38;;;;;;;14.89;93.95;94132.03;6151043;23;20191;-87
2023/10/26 10:59:55;;;;;;;1.65;1.10;;;;;;;14.81;94.19;94124.69;6150457;23;20549;-86
2023/10/26 11:02:25;;;;;;;1.58;1.02;;;;;;;14.80;94.77;94136.88;6151039;23;20214;-87
2023/10/26 11:04:55;;;;;;;1.42;1.17;;;;;;;14.71;95.01;94138.28;6151132;23;20669;-87
2023/10/26 11:07:27;;;;;;;1.35;1.25;;;;;;;14.69;96.02;94145.50;6154052;23;20306;-87
2023/10/26 11:10:00;;;;;;;1.55;1.05;;;;;;;14.59;96.83;94141.97;6154674;23;20666;-88
2023/10/26 11:12:35;;;;;;;1.20;1.10;;;;;;;14.36;100.00;94164.38;6155185;23;20182;-87
2023/10/26 11:15:07;;;;;;;1.27;1.10;;;;;;;14.26;100.00;94215.97;6154287;23;20159;-87
2023/10/26 11:18:01;;;;;;;3.10;1.30;;;;;;;14.31;100.00;94207.53;6154495;23;20195;-88
2023/10/26 11:20:46;;;;;;;2.15;1.10;;;;;;;14.35;100.00;94213.81;6063894;23;20173;-89
2023/10/26 11:24:00;;;;;;;2.25;1.30;;;;;;;14.45;100.00;94198.47;6144964;23;20661;-87
2023/10/26 11:26:29;;;;;;;1.52;1.20;;;;;;;14.55;100.00;94228.94;6153095;23;20257;-88
2023/10/26 11:29:24;;;;;;;1.20;1.10;;;;;;;14.68;100.00;94226.03;6154206;23;20175;-88
2023/10/26 11:46:13;;;;;;;1.88;1.10;;;;;;;14.91;100.00;94212.94;5848581;24;20234;-88
2023/10/26 11:52:42;;;;;;;1.05;0.95;;;;;;;14.80;100.00;94187.91;5931715;24;20240;-88
2023/10/26 11:58:57;;;;;;;1.02;0.70;;;;;;;14.92;100.00;94211.13;5893380;24;20256;-87
2023/10/26 12:01:56;;;;;;;1.88;0.93;;;;;;;15.07;100.00;94234.66;5950310;24;20243;-88
2023/10/26 12:11:32;;;;;;;0.80;0.80;;;;;;;15.08;100.00;94208.50;6040434;23;20205;-87
2023/10/26 12:13:59;;;;;;;0.80;0.80;;;;;;;15.17;100.00;94186.38;6153283;23;20792;-87
2023/10/26 12:16:53;;;;;;;1.92;0.90;;;;;;;15.18;100.00;94181.97;6153638;23;20191;-87
2023/10/26 12:19:42;;;;;;;1.13;0.98;;;;;;;15.27;100.00;94166.75;6153468;23;20535;-87
2023/10/26 12:22:48;;;;;;;1.08;0.90;;;;;;;15.25;100.00;94192.16;6153295;23;20219;-87
2023/10/26 12:25:57;;;;;;;0.88;0.80;;;;;;;15.22;100.00;94211.56;6152519;23;20170;-88
2023/10/26 12:35:43;;;;;;;2.53;0.93;;;;;;;15.25;100.00;94231.81;5973607;23;20182;-87
2023/10/26 12:38:45;;;;;;;0.60;0.60;;;;;;;15.24;100.00;94212.09;6035431;23;20626;-88
2023/10/26 12:42:03;;;;;;;0.80;0.80;;;;;;;15.30;100.00;94211.16;6152880;23;20181;-87
2023/10/26 12:44:51;;;;;;;0.80;0.73;;;;;;;15.25;100.00;94210.28;6061764;23;20176;-88
2023/10/26 12:47:59;;;;;;;0.70;0.70;;;;;;;15.20;100.00;94229.94;6061681;23;20278;-87
2023/10/26 12:56:55;;;;;;;0.65;0.65;;;;;;;15.01;100.00;94235.63;6077410;23;20198;-88
2023/10/26 13:03:39;;;;;;;0.80;0.80;;;;;;;14.91;100.00;94264.75;6011434;23;20249;-87
2023/10/26 13:06:21;;;;;;;1.20;0.65;;;;;;;14.80;100.00;94257.84;6152807;23;20282;-87
2023/10/26 13:09:05;;;;;;;2.22;2.03;;;;;;;14.88;100.00;94254.84;6152355;23;20175;-87
2023/10/26 13:36:26;;;;;;;1.15;1.00;;;;;;;15.13;100.00;94200.81;5790057;24;20558;-88
2023/10/26 13:39:05;;;;;;;1.92;1.17;;;;;;;15.09;100.00;94193.75;5921579;24;20379;-88
2023/10/26 13:44:48;;;;;;;1.30;1.00;;;;;;;15.03;100.00;94199.88;6148089;23;20546;-87
2023/10/26 13:47:32;;;;;;;1.60;0.98;;;;;;;14.99;100.00;94203.97;6155910;23;20191;-88
2023/10/26 13:50:09;;;;;;;2.60;1.00;;;;;;;14.96;100.00;94204.44;6153768;23;20175;-87
2023/10/26 13:52:44;;;;;;;2.17;1.05;;;;;;;15.00;100.00;94211.53;6153422;23;20175;-87
2023/10/26 13:55:13;;;;;;;2.30;1.17;;;;;;;15.03;100.00;94185.09;6150985;23;20222;-86
2023/10/26 13:57:40;;;;;;;2.05;1.25;;;;;;;15.06;100.00;94192.41;6152325;23;20221;-85
2023/10/26 14:00:11;;;;;;;2.03;1.00;;;;;;;15.06;100.00;94183.84;6149645;23;20655;-87
2023/10/26 14:02:52;;;;;;;2.22;1.20;;;;;;;15.06;100.00;94169.09;6153953;23;20175;-87
2023/10/26 14:05:28;;;;;;;4.75;1.52;;;;;;;15.14;100.00;94137.56;6149286;23;20194;-88
2023/10/26 14:08:07;;;;;;;2.95;1.08;;;;;;;15.23;100.00;94106.81;6153988;23;20218;-89
2023/10/26 14:10:43;;;;;;;3.03;1.25;;;;;;;15.32;100.00;94099.41;6152509;23;20218;-87
2023/10/26 14:13:09;;;;;;;2.10;1.35;;;;;;;15.46;100.00;94088.41;6158790;23;20209;-87
2023/10/26 14:15:39;;;;;;;4.40;1.35;;;;;;;15.50;100.00;94079.13;6158806;23;20174;-87
2023/10/26 14:18:06;;;;;;;4.70;1.23;;;;;;;15.47;99.57;94058.06;6158692;23;20197;-87
2023/10/26 14:20:50;;;;;;;2.90;1.30;;;;;;;15.44;98.95;94054.16;6157948;23;20190;-88
2023/10/26 14:23:23;;;;;;;2.30;1.10;;;;;;;15.47;99.28;94060.69;6152447;23;20225;-87
2023/10/26 14:25:50;;;;;;;4.22;1.45;;;;;;;15.46;98.92;94044.31;6158316;23;20156;-87
2023/10/26 14:28:17;;;;;;;1.88;1.45;;;;;;;15.38;97.82;94041.41;6159053;23;20572;-86
2023/10/26 14:30:49;;;;;;;3.75;1.45;;;;;;;15.45;97.40;94031.59;6161054;23;20269;-88
2023/10/26 14:33:21;;;;;;;2.58;1.30;;;;;;;15.40;97.25;94026.34;6158748;23;20622;-86
2023/10/26 14:35:50;;;;;;;3.20;1.30;;;;;;;15.40;96.81;94013.38;6161734;23;20171;-88
2023/10/26 14:38:46;;;;;;;5.75;1.40;;;;;;;15.39;96.69;94022.22;6161694;23;20178;-87
2023/10/26 14:41:24;;;;;;;2.95;1.20;;;;;;;15.41;95.80;94015.75;6160450;23;20194;-88
2023/10/26 14:43:55;;;;;;;3.13;1.33;;;;;;;15.39;94.51;93991.88;6160488;23;20183;-87
2023/10/26 14:47:14;;;;;;;3.30;1.50;;;;;;;15.36;93.54;93981.22;6159140;23;20194;-88
2023/10/26 14:52:58;;;;;;;2.28;1.17;;;;;;;15.37;92.93;93952.44;6121241;23;20273;-90
2023/10/26 15:04:59;;;;;;;3.60;1.50;;;;;;;15.58;91.65;93931.91;6156005;23;20186;-89
2023/10/26 15:07:55;;;;;;;4.82;1.50;;;;;;;15.59;91.63;93930.88;6158137;23;20681;-88
2023/10/26 15:10:48;;;;;;;4.68;2.05;;;;;;;15.64;92.01;93941.28;6037504;23;20189;-88
2023/10/26 15:13:50;;;;;;;5.05;2.10;;;;;;;15.67;92.25;93938.19;6153814;23;20178;-89
2023/10/26 15:16:41;;;;;;;4.10;1.90;;;;;;;15.63;93.32;93958.66;6155729;23;20246;-88
2023/10/26 15:22:15;;;;;;;3.53;2.00;;;;;;;15.51;95.26;93968.38;6152045;23;20182;-88
2023/10/26 15:25:03;;;;;;;5.93;1.95;;;;;;;15.52;95.50;93975.13;6153708;23;20167;-88
2023/10/26 15:31:32;;;;;;;2.95;1.73;;;;;;;15.37;97.81;93978.38;6153405;23;20181;-90
2023/10/26 15:34:17;;;;;;;4.40;2.85;;;;;;;15.33;97.45;93969.53;6146531;23;20182;-88
2023/10/26 15:36:55;;;;;;;3.95;2.05;;;;;;;15.36;97.51;93973.44;6154122;23;20210;-88
2023/10/26 15:39:52;;;;;;;5.43;2.08;;;;;;;15.34;97.51;93975.50;6154311;23;20170;-89
2023/10/26 15:42:39;;;;;;;;;;;;;;;;;;;;;
2023/10/26 15:48:24;;;;;;;3.53;1.90;;;;;;;15.33;97.14;93966.94;6150009;23;20690;-88
2023/10/26 15:51:17;;;;;;;2.65;1.92;;;;;;;15.25;98.10;93980.31;6154873;23;20171;-89
2023/10/26 15:54:02;;;;;;;3.78;2.42;;;;;;;15.22;98.89;93985.97;6153657;23;20191;-88
2023/10/26 15:56:36;;;;;;;4.53;2.15;;;;;;;15.21;99.58;94002.56;6152290;23;20226;-89
2023/10/26 15:59:09;;;;;;;4.90;2.03;;;;;;;15.18;100.00;94005.66;6153560;23;20186;-88
2023/10/26 16:36:43;;;;;;;5.00;2.13;;;;;;;14.98;100.00;94003.63;5738420;24;20294;-91
2023/10/26 16:42:39;;;;;;;5.88;2.75;;;;;;;14.96;100.00;94005.69;5888774;24;20512;-91
2023/10/26 16:47:55;;;;;;;5.20;2.28;;;;;;;14.86;100.00;94014.09;6031192;23;20205;-89
2023/10/26 16:50:37;;;;;;;3.53;2.20;;;;;;;14.91;100.00;94007.44;6059391;23;20181;-91
2023/10/26 16:56:27;;;;;;;4.78;2.30;;;;;;;14.89;100.00;93999.88;6059877;23;20219;-85
2023/10/26 16:58:56;;;;;;;6.57;2.20;;;;;;;14.91;100.00;93995.25;6089277;23;20179;-86
2023/10/26 17:01:22;;;;;;;3.95;2.20;;;;;;;14.89;100.00;93996.50;6122892;23;20239;-85
2023/10/26 17:03:51;;;;;;;3.95;2.15;;;;;;;14.89;100.00;93999.88;6122675;23;20180;-85
2023/10/26 17:06:17;;;;;;;3.15;1.92;;;;;;;14.92;100.00;93993.44;6122502;23;20299;-84
2023/10/26 17:08:44;;;;;;;3.47;2.78;;;;;;;14.90;100.00;94003.28;6122135;23;20703;-85
2023/10/26 17:11:11;;;;;;;3.72;2.20;;;;;;;14.90;100.00;93998.88;6121814;23;20194;-85
2023/10/26 17:13:43;;;;;;;5.25;2.40;;;;;;;14.92;100.00;93988.25;6142803;23;20187;-86
2023/10/26 17:16:10;;;;;;;4.22;2.58;;;;;;;14.89;100.00;93981.75;6153948;23;20241;-86
2023/10/26 17:18:36;;;;;;;4.45;3.45;;;;;;;14.90;100.00;93977.34;6153610;23;20750;-85
2023/10/26 17:21:03;;;;;;;5.68;3.70;;;;;;;14.90;100.00;93980.72;6154133;23;20178;-84
2023/10/26 17:23:30;;;;;;;11.70;8.30;;;;;;;14.91;100.00;93986.69;6153337;23;20178;-85
2023/10/26 17:25:56;;;;;;;6.10;3.70;;;;;;;14.92;100.00;93973.50;6153071;23;20171;-87
2023/10/26 17:28:23;;;;;;;7.43;3.83;;;;;;;14.96;100.00;93984.16;6153684;23;20181;-85
2023/10/26 17:30:51;;;;;;;3.45;2.75;;;;;;;14.96;100.00;93981.56;6152444;23;20484;-85
2023/10/26 17:33:18;;;;;;;3.63;2.45;;;;;;;14.94;100.00;93981.81;6151986;23;20198;-86
2023/10/26 17:35:47;;;;;;;3.20;2.50;;;;;;;14.94;100.00;93971.44;6151884;23;20189;-82
2023/10/26 17:38:14;;;;;;;4.68;2.80;;;;;;;14.91;100.00;93984.88;6152373;23;20206;-86
2023/10/26 17:41:24;;;;;;;3.58;2.60;;;;;;;14.89;100.00;93989.53;6152789;23;20178;-87
2023/10/26 17:43:52;;;;;;;4.25;2.50;;;;;;;14.77;100.00;94002.63;6111442;23;20178;-84
2023/10/26 17:46:21;;;;;;;3.65;2.45;;;;;;;14.73;100.00;94011.88;6151922;23;20574;-84
2023/10/26 17:48:48;;;;;;;3.35;2.30;;;;;;;14.69;100.00;94022.97;6151810;23;20556;-85
2023/10/26 17:51:14;;;;;;;6.30;2.63;;;;;;;14.70;100.00;94030.50;6151729;23;20186;-85
2023/10/26 17:53:41;;;;;;;3.50;1.83;;;;;;;14.60;100.00;94032.19;6144232;23;20256;-84
2023/10/26 17:56:12;;;;;;;3.90;2.03;;;;;;;14.63;100.00;94026.50;6151780;23;20194;-84
2023/10/26 17:58:38;;;;;;;3.40;2.15;;;;;;;14.64;100.00;94022.88;6152246;23;20159;-85
2023/10/26 18:01:06;;;;;;;3.63;1.75;;;;;;;14.71;100.00;94010.56;6152011;23;20179;-86
2023/10/26 18:03:35;;;;;;;4.45;2.17;;;;;;;14.68;99.61;93996.28;6151071;23;20674;-84
2023/10/26 18:06:03;;;;;;;3.42;1.80;;;;;;;14.71;98.49;93982.06;6151569;23;20186;-86
2023/10/26 18:08:31;;;;;;;3.72;1.95;;;;;;;14.72;97.82;93958.50;6151960;23;20179;-86
2023/10/26 18:10:58;;;;;;;3.05;1.92;;;;;;;14.75;96.94;93945.06;6151336;23;20186;-85
2023/10/26 18:13:25;;;;;;;5.38;1.92;;;;;;;14.72;95.84;93932.59;6151395;23;20206;-86
2023/10/26 18:15:55;;;;;;;3.50;2.10;;;;;;;14.73;95.08;93921.22;6150830;23;20827;-85
2023/10/26 18:18:22;;;;;;;8.05;6.80;;;;;;;14.76;95.23;93917.34;6151527;23;20174;-85
2023/10/26 18:20:55;;;;;;;6.28;4.38;;;;;;;14.76;94.79;93907.00;6151750;23;20171;-84
2023/10/26 18:23:21;;;;;;;4.32;1.92;;;;;;;14.75;94.80;93911.41;6151709;23;20167;-85
2023/10/26 18:25:56;;;;;;;3.13;1.90;;;;;;;14.77;nan;93896.41;6150580;23;20186;-85
2023/10/26 18:28:23;;;;;;;4.45;1.95;;;;;;;14.82;94.11;93898.22;6152241;23;20233;-85
2023/10/26 18:31:00;;;;;;;4.05;1.88;;;;;;;14.89;93.46;93885.09;6151554;23;20720;-87
2023/10/26 18:33:30;;;;;;;3.53;1.88;;;;;;;14.92;93.07;93880.22;6152504;23;20183;-86
2023/10/26 18:36:02;;;;;;;2.10;1.77;;;;;;;14.96;93.42;93880.50;6151671;23;20186;-85
2023/10/26 18:38:29;;;;;;;2.60;2.25;;;;;;;14.95;92.93;93881.53;6152075;23;20711;-86
2023/10/26 18:40:56;;;;;;;2.70;2.25;;;;;;;14.96;92.93;93881.28;6152576;23;20238;-87
2023/10/26 18:43:22;;;;;;;4.45;2.60;;;;;;;14.94;92.86;93879.97;6152521;23;20356;-85
2023/10/26 18:45:57;;;;;;;3.33;2.67;;;;;;;14.92;93.44;93894.97;6153780;23;20175;-85